sensor_id;sensor_type;location;lat;lon;timestamp;pressure;altitude;pressure_sealevel;temperature;humidity
44751;BME280;30477;48.224;11.470;2023-01-04T00:01:30;97310.50;;;3.03;76.19
44751;BME280;30477;48.224;11.470;2023-01-04T00:03:55;97312.88;;;3.08;76.43
44751;BME280;30477;48.224;11.470;2023-01-04T00:06:21;97307.25;;;3.20;76.45
44751;BME280;30477;48.224;11.470;2023-01-04T00:08:47;97308.69;;;3.28;76.38
44751;BME280;30477;48.224;11.470;2023-01-04T00:11:14;97311.97;;;3.30;76.13
44751;BME280;30477;48.224;11.470;2023-01-04T00:13:42;97313.97;;;3.23;76.19
44751;BME280;30477;48.224;11.470;2023-01-04T00:16:12;97311.41;;;3.23;76.17
44751;BME280;30477;48.224;11.470;2023-01-04T00:18:37;97307.72;;;3.30;76.09
44751;BME280;30477;48.224;11.470;2023-01-04T00:21:14;97309.09;;;3.17;75.95
44751;BME280;30477;48.224;11.470;2023-01-04T00:23:43;97313.69;;;3.09;75.87
44751;BME280;30477;48.224;11.470;2023-01-04T00:26:10;97312.03;;;3.08;76.30
44751;BME280;30477;48.224;11.470;2023-01-04T00:28:36;97306.47;;;2.98;75.92
44751;BME280;30477;48.224;11.470;2023-01-04T00:31:07;97307.31;;;2.98;76.08
44751;BME280;30477;48.224;11.470;2023-01-04T00:33:32;97308.78;;;2.83;75.79
44751;BME280;30477;48.224;11.470;2023-01-04T00:36:09;97303.72;;;2.82;76.49
44751;BME280;30477;48.224;11.470;2023-01-04T00:38:34;97302.88;;;2.81;76.58
44751;BME280;30477;48.224;11.470;2023-01-04T00:41:01;97304.53;;;2.82;76.29
44751;BME280;30477;48.224;11.470;2023-01-04T00:43:26;97302.66;;;2.66;76.34
44751;BME280;30477;48.224;11.470;2023-01-04T00:45:52;97303.28;;;2.71;76.96
44751;BME280;30477;48.224;11.470;2023-01-04T00:48:18;97298.38;;;2.66;77.17
44751;BME280;30477;48.224;11.470;2023-01-04T00:50:45;97289.63;;;2.50;76.42
44751;BME280;30477;48.224;11.470;2023-01-04T00:53:10;97290.59;;;2.47;76.88
44751;BME280;30477;48.224;11.470;2023-01-04T00:55:36;97288.47;;;2.36;76.96
44751;BME280;30477;48.224;11.470;2023-01-04T00:58:01;97286.38;;;2.46;77.41
44751;BME280;30477;48.224;11.470;2023-01-04T01:00:27;97279.41;;;2.50;77.38
44751;BME280;30477;48.224;11.470;2023-01-04T01:02:52;97286.53;;;2.41;77.03
44751;BME280;30477;48.224;11.470;2023-01-04T01:05:17;97297.94;;;2.33;76.98
44751;BME280;30477;48.224;11.470;2023-01-04T01:07:43;97297.25;;;2.29;77.17
44751;BME280;30477;48.224;11.470;2023-01-04T01:10:08;97293.03;;;2.28;77.34
44751;BME280;30477;48.224;11.470;2023-01-04T01:12:33;97285.28;;;2.08;77.01
44751;BME280;30477;48.224;11.470;2023-01-04T01:14:59;97287.22;;;2.01;77.73
44751;BME280;30477;48.224;11.470;2023-01-04T01:17:25;97285.22;;;2.09;77.79
44751;BME280;30477;48.224;11.470;2023-01-04T01:19:50;97292.69;;;1.92;77.26
44751;BME280;30477;48.224;11.470;2023-01-04T01:22:15;97304.06;;;1.83;77.72
44751;BME280;30477;48.224;11.470;2023-01-04T01:24:40;97305.13;;;1.77;78.07
44751;BME280;30477;48.224;11.470;2023-01-04T01:27:06;97309.41;;;1.77;78.33
44751;BME280;30477;48.224;11.470;2023-01-04T01:29:31;97311.59;;;1.86;78.45
44751;BME280;30477;48.224;11.470;2023-01-04T01:31:56;97303.63;;;1.95;78.93
44751;BME280;30477;48.224;11.470;2023-01-04T01:34:22;97313.59;;;2.01;78.79
44751;BME280;30477;48.224;11.470;2023-01-04T01:36:47;97322.34;;;2.18;79.46
44751;BME280;30477;48.224;11.470;2023-01-04T01:39:13;97322.56;;;2.35;79.98
44751;BME280;30477;48.224;11.470;2023-01-04T01:41:38;97318.09;;;2.40;79.46
44751;BME280;30477;48.224;11.470;2023-01-04T01:44:50;97310.44;;;2.40;79.59
44751;BME280;30477;48.224;11.470;2023-01-04T01:46:52;97308.13;;;2.56;79.82
44751;BME280;30477;48.224;11.470;2023-01-04T01:49:26;97311.75;;;2.51;79.71
44751;BME280;30477;48.224;11.470;2023-01-04T01:51:55;97303.06;;;2.55;80.36
44751;BME280;30477;48.224;11.470;2023-01-04T01:54:57;97303.25;;;2.72;80.39
44751;BME280;30477;48.224;11.470;2023-01-04T01:57:22;97309.66;;;2.82;80.54
44751;BME280;30477;48.224;11.470;2023-01-04T01:59:50;97306.97;;;2.85;80.72
44751;BME280;30477;48.224;11.470;2023-01-04T02:02:17;97304.16;;;2.92;80.54
44751;BME280;30477;48.224;11.470;2023-01-04T02:04:45;97301.50;;;3.15;81.20
44751;BME280;30477;48.224;11.470;2023-01-04T02:07:14;97297.16;;;3.17;81.15
44751;BME280;30477;48.224;11.470;2023-01-04T02:09:41;97296.91;;;3.23;81.17
44751;BME280;30477;48.224;11.470;2023-01-04T02:12:11;97300.84;;;3.31;81.24
44751;BME280;30477;48.224;11.470;2023-01-04T02:14:37;97296.91;;;3.23;81.13
44751;BME280;30477;48.224;11.470;2023-01-04T02:20:01;97290.47;;;3.34;81.28
44751;BME280;30477;48.224;11.470;2023-01-04T02:23:09;97290.09;;;3.43;81.18
44751;BME280;30477;48.224;11.470;2023-01-04T02:33:48;97276.72;;;3.76;81.00
44751;BME280;30477;48.224;11.470;2023-01-04T02:36:22;97279.91;;;3.81;80.72
44751;BME280;30477;48.224;11.470;2023-01-04T02:39:02;97289.91;;;3.87;80.85
44751;BME280;30477;48.224;11.470;2023-01-04T02:41:43;97285.38;;;3.92;80.92
44751;BME280;30477;48.224;11.470;2023-01-04T02:44:18;97279.88;;;4.01;80.98
44751;BME280;30477;48.224;11.470;2023-01-04T02:47:27;97275.13;;;4.11;81.05
44751;BME280;30477;48.224;11.470;2023-01-04T02:53:10;97250.75;;;4.21;80.80
44751;BME280;30477;48.224;11.470;2023-01-04T02:55:47;97249.66;;;4.27;80.97
44751;BME280;30477;48.224;11.470;2023-01-04T02:58:55;97242.56;;;4.32;80.86
44751;BME280;30477;48.224;11.470;2023-01-04T03:01:40;97238.41;;;4.30;80.83
44751;BME280;30477;48.224;11.470;2023-01-04T03:13:02;97228.97;;;4.30;80.45
44751;BME280;30477;48.224;11.470;2023-01-04T03:15:32;97243.47;;;4.31;80.29
44751;BME280;30477;48.224;11.470;2023-01-04T03:18:23;97242.84;;;4.26;80.25
44751;BME280;30477;48.224;11.470;2023-01-04T03:20:48;97248.25;;;4.20;80.23
44751;BME280;30477;48.224;11.470;2023-01-04T03:23:18;97253.53;;;4.17;80.23
44751;BME280;30477;48.224;11.470;2023-01-04T03:26:08;97251.72;;;4.19;80.33
44751;BME280;30477;48.224;11.470;2023-01-04T03:28:55;97234.69;;;4.18;80.25
44751;BME280;30477;48.224;11.470;2023-01-04T03:31:48;97233.03;;;4.17;80.40
44751;BME280;30477;48.224;11.470;2023-01-04T03:34:35;97240.56;;;4.20;80.12
44751;BME280;30477;48.224;11.470;2023-01-04T03:37:47;97237.19;;;4.19;80.23
44751;BME280;30477;48.224;11.470;2023-01-04T03:40:23;97231.94;;;4.22;79.92
44751;BME280;30477;48.224;11.470;2023-01-04T03:43:20;97234.25;;;4.27;79.84
44751;BME280;30477;48.224;11.470;2023-01-04T03:51:39;97215.16;;;4.15;79.67
44751;BME280;30477;48.224;11.470;2023-01-04T03:54:47;97204.84;;;4.17;79.67
44751;BME280;30477;48.224;11.470;2023-01-04T03:56:53;97205.59;;;4.19;79.51
44751;BME280;30477;48.224;11.470;2023-01-04T03:59:21;97195.50;;;4.16;79.59
44751;BME280;30477;48.224;11.470;2023-01-04T04:01:47;97195.34;;;4.19;79.65
44751;BME280;30477;48.224;11.470;2023-01-04T04:04:13;97188.56;;;4.18;79.58
44751;BME280;30477;48.224;11.470;2023-01-04T04:06:57;97189.41;;;4.18;79.65
44751;BME280;30477;48.224;11.470;2023-01-04T04:09:41;97182.69;;;4.16;79.51
44751;BME280;30477;48.224;11.470;2023-01-04T04:12:06;97193.16;;;4.11;79.49
44751;BME280;30477;48.224;11.470;2023-01-04T04:14:32;97185.56;;;4.10;79.57
44751;BME280;30477;48.224;11.470;2023-01-04T04:16:57;97185.41;;;4.13;79.75
44751;BME280;30477;48.224;11.470;2023-01-04T04:19:22;97186.00;;;4.18;79.65
44751;BME280;30477;48.224;11.470;2023-01-04T04:21:48;97181.94;;;4.14;79.48
44751;BME280;30477;48.224;11.470;2023-01-04T04:24:18;97180.72;;;4.03;79.41
44751;BME280;30477;48.224;11.470;2023-01-04T04:26:44;97176.34;;;4.05;79.41
44751;BME280;30477;48.224;11.470;2023-01-04T04:29:10;97181.38;;;4.07;79.57
44751;BME280;30477;48.224;11.470;2023-01-04T04:31:35;97173.78;;;4.05;79.39
44751;BME280;30477;48.224;11.470;2023-01-04T04:34:00;97177.09;;;4.07;79.41
44751;BME280;30477;48.224;11.470;2023-01-04T04:36:26;97170.19;;;4.10;79.57
44751;BME280;30477;48.224;11.470;2023-01-04T04:38:51;97162.50;;;4.10;79.40
44751;BME280;30477;48.224;11.470;2023-01-04T04:41:16;97166.72;;;4.11;79.57
44751;BME280;30477;48.224;11.470;2023-01-04T04:44:01;97159.94;;;4.10;79.46
44751;BME280;30477;48.224;11.470;2023-01-04T04:46:26;97160.88;;;4.07;79.46
44751;BME280;30477;48.224;11.470;2023-01-04T04:48:52;97152.31;;;4.08;79.48
44751;BME280;30477;48.224;11.470;2023-01-04T04:51:17;97159.19;;;4.07;79.49
44751;BME280;30477;48.224;11.470;2023-01-04T04:53:42;97156.31;;;4.14;79.67
44751;BME280;30477;48.224;11.470;2023-01-04T04:56:08;97149.53;;;4.13;79.43
44751;BME280;30477;48.224;11.470;2023-01-04T04:58:34;97147.88;;;4.12;79.46
44751;BME280;30477;48.224;11.470;2023-01-04T05:01:00;97151.34;;;4.11;79.42
44751;BME280;30477;48.224;11.470;2023-01-04T05:03:25;97150.34;;;4.13;79.54
44751;BME280;30477;48.224;11.470;2023-01-04T05:05:50;97153.66;;;4.15;79.39
44751;BME280;30477;48.224;11.470;2023-01-04T05:08:16;97156.47;;;4.11;79.14
44751;BME280;30477;48.224;11.470;2023-01-04T05:10:41;97159.25;;;4.06;79.29
44751;BME280;30477;48.224;11.470;2023-01-04T05:13:07;97164.50;;;4.03;79.10
44751;BME280;30477;48.224;11.470;2023-01-04T05:15:39;97165.25;;;4.05;79.29
44751;BME280;30477;48.224;11.470;2023-01-04T05:18:05;97179.25;;;3.98;78.83
44751;BME280;30477;48.224;11.470;2023-01-04T05:20:32;97176.16;;;3.91;78.99
44751;BME280;30477;48.224;11.470;2023-01-04T05:22:57;97175.91;;;3.78;78.88
44751;BME280;30477;48.224;11.470;2023-01-04T05:25:23;97184.34;;;3.61;78.91
44751;BME280;30477;48.224;11.470;2023-01-04T05:27:49;97175.22;;;3.56;79.17
44751;BME280;30477;48.224;11.470;2023-01-04T05:30:15;97177.56;;;3.60;79.26
44751;BME280;30477;48.224;11.470;2023-01-04T05:33:00;97173.97;;;3.64;79.44
44751;BME280;30477;48.224;11.470;2023-01-04T05:35:25;97172.81;;;3.72;79.20
44751;BME280;30477;48.224;11.470;2023-01-04T05:37:51;97173.84;;;3.68;79.16
44751;BME280;30477;48.224;11.470;2023-01-04T05:40:16;97170.25;;;3.72;79.25
44751;BME280;30477;48.224;11.470;2023-01-04T05:42:42;97171.72;;;3.76;79.15
44751;BME280;30477;48.224;11.470;2023-01-04T05:45:08;97178.59;;;3.75;78.95
44751;BME280;30477;48.224;11.470;2023-01-04T05:47:34;97179.63;;;3.71;78.61
44751;BME280;30477;48.224;11.470;2023-01-04T05:49:59;97180.59;;;3.69;78.53
44751;BME280;30477;48.224;11.470;2023-01-04T05:52:25;97175.47;;;3.69;78.68
44751;BME280;30477;48.224;11.470;2023-01-04T05:54:51;97178.03;;;3.69;78.45
44751;BME280;30477;48.224;11.470;2023-01-04T05:57:16;97172.22;;;3.65;78.50
44751;BME280;30477;48.224;11.470;2023-01-04T05:59:42;97174.03;;;3.63;78.45
44751;BME280;30477;48.224;11.470;2023-01-04T06:02:13;97173.13;;;3.64;78.39
44751;BME280;30477;48.224;11.470;2023-01-04T06:04:39;97180.06;;;3.62;78.49
44751;BME280;30477;48.224;11.470;2023-01-04T06:07:04;97188.28;;;3.69;78.59
44751;BME280;30477;48.224;11.470;2023-01-04T06:09:29;97183.88;;;3.72;78.54
44751;BME280;30477;48.224;11.470;2023-01-04T06:11:55;97189.81;;;3.73;78.53
44751;BME280;30477;48.224;11.470;2023-01-04T06:14:20;97191.00;;;3.65;78.42
44751;BME280;30477;48.224;11.470;2023-01-04T06:16:45;97188.44;;;3.65;78.56
44751;BME280;30477;48.224;11.470;2023-01-04T06:19:11;97182.56;;;3.63;78.65
44751;BME280;30477;48.224;11.470;2023-01-04T06:21:36;97180.16;;;3.78;78.84
44751;BME280;30477;48.224;11.470;2023-01-04T06:24:01;97169.81;;;3.81;78.68
44751;BME280;30477;48.224;11.470;2023-01-04T06:26:27;97169.94;;;3.78;78.64
44751;BME280;30477;48.224;11.470;2023-01-04T06:28:52;97168.28;;;3.77;78.58
44751;BME280;30477;48.224;11.470;2023-01-04T06:31:18;97168.88;;;3.82;78.72
44751;BME280;30477;48.224;11.470;2023-01-04T06:33:43;97164.41;;;3.87;78.83
44751;BME280;30477;48.224;11.470;2023-01-04T06:36:08;97159.00;;;3.93;78.74
44751;BME280;30477;48.224;11.470;2023-01-04T06:38:33;97158.84;;;3.96;78.69
44751;BME280;30477;48.224;11.470;2023-01-04T06:40:59;97156.28;;;3.96;78.63
44751;BME280;30477;48.224;11.470;2023-01-04T06:43:24;97151.78;;;4.01;78.51
44751;BME280;30477;48.224;11.470;2023-01-04T06:45:50;97146.38;;;4.07;78.54
44751;BME280;30477;48.224;11.470;2023-01-04T06:48:15;97146.44;;;4.06;78.60
44751;BME280;30477;48.224;11.470;2023-01-04T06:50:41;97144.00;;;4.03;78.37
44751;BME280;30477;48.224;11.470;2023-01-04T06:53:07;97142.94;;;4.07;78.34
44751;BME280;30477;48.224;11.470;2023-01-04T06:55:32;97153.13;;;4.09;78.31
44751;BME280;30477;48.224;11.470;2023-01-04T06:57:57;97144.63;;;4.08;78.13
44751;BME280;30477;48.224;11.470;2023-01-04T07:00:23;97145.81;;;4.01;78.14
44751;BME280;30477;48.224;11.470;2023-01-04T07:02:49;97141.72;;;3.97;78.14
44751;BME280;30477;48.224;11.470;2023-01-04T07:05:14;97146.03;;;3.96;78.18
44751;BME280;30477;48.224;11.470;2023-01-04T07:07:40;97140.31;;;3.91;78.19
44751;BME280;30477;48.224;11.470;2023-01-04T07:10:05;97129.91;;;3.94;78.37
44751;BME280;30477;48.224;11.470;2023-01-04T07:12:31;97138.22;;;3.99;78.22
44751;BME280;30477;48.224;11.470;2023-01-04T07:14:57;97131.41;;;3.98;78.30
44751;BME280;30477;48.224;11.470;2023-01-04T07:17:22;97128.03;;;3.98;78.23
44751;BME280;30477;48.224;11.470;2023-01-04T07:19:47;97132.94;;;4.02;78.45
44751;BME280;30477;48.224;11.470;2023-01-04T07:22:13;97138.81;;;4.04;78.24
44751;BME280;30477;48.224;11.470;2023-01-04T07:24:38;97132.81;;;4.05;78.39
44751;BME280;30477;48.224;11.470;2023-01-04T07:27:04;97134.59;;;4.03;78.17
44751;BME280;30477;48.224;11.470;2023-01-04T07:29:29;97135.72;;;3.98;78.34
44751;BME280;30477;48.224;11.470;2023-01-04T07:31:55;97137.22;;;4.02;78.52
44751;BME280;30477;48.224;11.470;2023-01-04T07:34:22;97140.56;;;4.04;78.48
44751;BME280;30477;48.224;11.470;2023-01-04T07:36:48;97134.97;;;4.13;78.48
44751;BME280;30477;48.224;11.470;2023-01-04T07:39:15;97127.22;;;4.15;78.58
44751;BME280;30477;48.224;11.470;2023-01-04T07:41:41;97126.88;;;4.22;78.54
44751;BME280;30477;48.224;11.470;2023-01-04T07:44:07;97124.81;;;4.29;78.62
44751;BME280;30477;48.224;11.470;2023-01-04T07:46:33;97119.53;;;4.32;78.54
44751;BME280;30477;48.224;11.470;2023-01-04T07:48:59;97119.25;;;4.38;78.59
44751;BME280;30477;48.224;11.470;2023-01-04T07:51:24;97113.81;;;4.44;78.65
44751;BME280;30477;48.224;11.470;2023-01-04T07:53:49;97113.66;;;4.47;78.47
44751;BME280;30477;48.224;11.470;2023-01-04T07:56:15;97104.94;;;4.52;78.56
44751;BME280;30477;48.224;11.470;2023-01-04T07:58:41;97102.94;;;4.57;78.62
44751;BME280;30477;48.224;11.470;2023-01-04T08:01:12;97104.53;;;4.59;78.66
44751;BME280;30477;48.224;11.470;2023-01-04T08:03:38;97098.19;;;4.66;78.63
44751;BME280;30477;48.224;11.470;2023-01-04T08:06:09;97105.47;;;4.74;78.68
44751;BME280;30477;48.224;11.470;2023-01-04T08:08:34;97101.03;;;4.78;78.64
44751;BME280;30477;48.224;11.470;2023-01-04T08:11:04;97103.34;;;4.82;78.60
44751;BME280;30477;48.224;11.470;2023-01-04T08:13:30;97098.81;;;4.87;78.57
44751;BME280;30477;48.224;11.470;2023-01-04T08:15:55;97107.19;;;4.91;78.62
44751;BME280;30477;48.224;11.470;2023-01-04T08:18:22;97101.06;;;4.94;78.58
44751;BME280;30477;48.224;11.470;2023-01-04T08:20:48;97097.34;;;4.99;78.61
44751;BME280;30477;48.224;11.470;2023-01-04T08:23:13;97098.78;;;5.05;78.60
44751;BME280;30477;48.224;11.470;2023-01-04T08:25:38;97096.94;;;5.07;78.63
44751;BME280;30477;48.224;11.470;2023-01-04T08:28:04;97099.13;;;5.15;78.60
44751;BME280;30477;48.224;11.470;2023-01-04T08:30:29;97096.31;;;5.19;78.68
44751;BME280;30477;48.224;11.470;2023-01-04T08:32:55;97093.00;;;5.33;78.72
44751;BME280;30477;48.224;11.470;2023-01-04T08:35:21;97099.97;;;5.47;78.50
44751;BME280;30477;48.224;11.470;2023-01-04T08:37:47;97097.81;;;5.55;78.70
44751;BME280;30477;48.224;11.470;2023-01-04T08:40:12;97103.50;;;5.60;78.69
44751;BME280;30477;48.224;11.470;2023-01-04T08:42:37;97110.06;;;5.66;78.56
44751;BME280;30477;48.224;11.470;2023-01-04T08:45:03;97106.09;;;5.76;78.62
44751;BME280;30477;48.224;11.470;2023-01-04T08:47:29;97096.47;;;5.80;78.39
44751;BME280;30477;48.224;11.470;2023-01-04T08:49:56;97092.09;;;5.82;78.41
44751;BME280;30477;48.224;11.470;2023-01-04T08:52:22;97091.00;;;5.86;78.19
44751;BME280;30477;48.224;11.470;2023-01-04T08:54:47;97084.03;;;5.88;78.18
44751;BME280;30477;48.224;11.470;2023-01-04T08:57:14;97082.22;;;5.90;77.93
44751;BME280;30477;48.224;11.470;2023-01-04T08:59:39;97090.63;;;5.92;77.97
44751;BME280;30477;48.224;11.470;2023-01-04T09:02:31;97083.66;;;5.94;77.75
44751;BME280;30477;48.224;11.470;2023-01-04T09:04:56;97088.81;;;5.94;77.60
44751;BME280;30477;48.224;11.470;2023-01-04T09:07:31;97065.63;;;5.96;77.59
44751;BME280;30477;48.224;11.470;2023-01-04T09:09:56;97082.25;;;6.04;77.41
44751;BME280;30477;48.224;11.470;2023-01-04T09:12:22;97065.75;;;6.08;77.42
44751;BME280;30477;48.224;11.470;2023-01-04T09:14:48;97067.09;;;6.16;77.08
44751;BME280;30477;48.224;11.470;2023-01-04T09:17:13;97069.19;;;6.23;76.84
44751;BME280;30477;48.224;11.470;2023-01-04T09:19:39;97067.00;;;6.32;76.62
44751;BME280;30477;48.224;11.470;2023-01-04T09:22:05;97073.19;;;6.43;76.61
44751;BME280;30477;48.224;11.470;2023-01-04T09:24:32;97074.47;;;6.50;75.99
44751;BME280;30477;48.224;11.470;2023-01-04T09:26:57;97067.16;;;6.59;75.85
44751;BME280;30477;48.224;11.470;2023-01-04T09:29:23;97071.94;;;6.65;75.43
44751;BME280;30477;48.224;11.470;2023-01-04T09:31:50;97059.53;;;6.71;75.24
44751;BME280;30477;48.224;11.470;2023-01-04T09:34:16;97072.75;;;6.80;75.22
44751;BME280;30477;48.224;11.470;2023-01-04T09:36:42;97067.09;;;6.89;74.90
44751;BME280;30477;48.224;11.470;2023-01-04T09:39:07;97066.59;;;6.97;74.69
44751;BME280;30477;48.224;11.470;2023-01-04T09:41:41;97071.22;;;7.06;74.59
44751;BME280;30477;48.224;11.470;2023-01-04T09:44:43;97071.75;;;7.11;74.41
44751;BME280;30477;48.224;11.470;2023-01-04T09:47:10;97069.91;;;7.13;74.01
44751;BME280;30477;48.224;11.470;2023-01-04T09:49:45;97065.47;;;7.15;74.23
44751;BME280;30477;48.224;11.470;2023-01-04T09:52:17;97057.59;;;7.18;74.02
44751;BME280;30477;48.224;11.470;2023-01-04T09:57:39;97068.94;;;7.28;73.78
44751;BME280;30477;48.224;11.470;2023-01-04T10:00:25;97063.63;;;7.31;73.53
44751;BME280;30477;48.224;11.470;2023-01-04T10:02:58;97055.81;;;7.33;73.30
44751;BME280;30477;48.224;11.470;2023-01-04T10:05:29;97052.22;;;7.36;73.15
44751;BME280;30477;48.224;11.470;2023-01-04T10:07:55;97049.06;;;7.45;72.97
44751;BME280;30477;48.224;11.470;2023-01-04T10:13:30;97039.53;;;7.60;72.62
44751;BME280;30477;48.224;11.470;2023-01-04T10:18:52;97029.56;;;7.68;71.86
44751;BME280;30477;48.224;11.470;2023-01-04T10:21:32;97014.53;;;7.75;71.62
44751;BME280;30477;48.224;11.470;2023-01-04T10:26:49;97021.97;;;7.79;71.09
44751;BME280;30477;48.224;11.470;2023-01-04T10:31:57;97001.16;;;7.82;70.78
44751;BME280;30477;48.224;11.470;2023-01-04T10:34:31;97007.13;;;7.83;70.72
44751;BME280;30477;48.224;11.470;2023-01-04T10:36:59;97001.97;;;7.83;70.46
44751;BME280;30477;48.224;11.470;2023-01-04T10:39:30;96994.97;;;7.85;70.62
44751;BME280;30477;48.224;11.470;2023-01-04T10:42:07;96988.09;;;7.85;70.54
44751;BME280;30477;48.224;11.470;2023-01-04T10:44:40;96985.59;;;7.84;70.34
44751;BME280;30477;48.224;11.470;2023-01-04T10:49:54;96978.78;;;7.83;69.99
44751;BME280;30477;48.224;11.470;2023-01-04T10:52:35;96972.91;;;7.81;69.96
44751;BME280;30477;48.224;11.470;2023-01-04T10:55:13;96970.13;;;7.84;70.04
44751;BME280;30477;48.224;11.470;2023-01-04T10:57:49;96964.75;;;7.87;69.97
44751;BME280;30477;48.224;11.470;2023-01-04T11:00:22;96952.59;;;7.89;69.75
44751;BME280;30477;48.224;11.470;2023-01-04T11:03:37;96949.13;;;7.90;69.76
44751;BME280;30477;48.224;11.470;2023-01-04T11:05:48;96937.84;;;7.91;69.52
44751;BME280;30477;48.224;11.470;2023-01-04T11:08:19;96939.31;;;7.95;69.41
44751;BME280;30477;48.224;11.470;2023-01-04T11:11:10;96931.25;;;8.00;69.23
44751;BME280;30477;48.224;11.470;2023-01-04T11:13:34;96928.41;;;8.04;69.03
44751;BME280;30477;48.224;11.470;2023-01-04T11:16:01;96930.66;;;8.09;68.42
44751;BME280;30477;48.224;11.470;2023-01-04T11:18:29;96926.97;;;8.13;68.57
44751;BME280;30477;48.224;11.470;2023-01-04T11:20:56;96923.13;;;8.19;67.37
44751;BME280;30477;48.224;11.470;2023-01-04T11:23:21;96922.19;;;8.20;67.06
44751;BME280;30477;48.224;11.470;2023-01-04T11:25:51;96933.97;;;8.24;66.51
44751;BME280;30477;48.224;11.470;2023-01-04T11:28:38;96935.59;;;8.25;66.13
44751;BME280;30477;48.224;11.470;2023-01-04T11:34:01;96936.00;;;8.31;65.51
44751;BME280;30477;48.224;11.470;2023-01-04T11:38:55;96929.41;;;8.40;65.05
44751;BME280;30477;48.224;11.470;2023-01-04T11:41:20;96906.09;;;8.42;64.55
44751;BME280;30477;48.224;11.470;2023-01-04T11:43:56;96908.47;;;8.45;64.00
44751;BME280;30477;48.224;11.470;2023-01-04T11:46:23;96911.69;;;8.48;63.61
44751;BME280;30477;48.224;11.470;2023-01-04T11:48:49;96907.13;;;8.52;63.18
44751;BME280;30477;48.224;11.470;2023-01-04T11:53:56;96910.94;;;8.59;62.72
44751;BME280;30477;48.224;11.470;2023-01-04T11:56:24;96904.84;;;8.60;62.64
44751;BME280;30477;48.224;11.470;2023-01-04T12:01:32;96895.84;;;8.66;61.89
44751;BME280;30477;48.224;11.470;2023-01-04T12:03:58;96881.28;;;8.65;60.89
44751;BME280;30477;48.224;11.470;2023-01-04T12:06:33;96880.25;;;8.67;60.97
44751;BME280;30477;48.224;11.470;2023-01-04T12:09:01;96882.63;;;8.70;60.73
44751;BME280;30477;48.224;11.470;2023-01-04T12:11:33;96874.66;;;8.73;60.71
44751;BME280;30477;48.224;11.470;2023-01-04T12:14:00;96881.38;;;8.76;60.41
44751;BME280;30477;48.224;11.470;2023-01-04T12:16:46;96872.69;;;8.77;60.09
44751;BME280;30477;48.224;11.470;2023-01-04T12:19:15;96870.09;;;8.77;59.97
44751;BME280;30477;48.224;11.470;2023-01-04T12:21:43;96859.78;;;8.77;59.64
44751;BME280;30477;48.224;11.470;2023-01-04T12:24:15;96860.38;;;8.81;59.20
44751;BME280;30477;48.224;11.470;2023-01-04T12:26:41;96854.16;;;8.83;59.18
44751;BME280;30477;48.224;11.470;2023-01-04T12:31:52;96849.53;;;8.88;59.33
44751;BME280;30477;48.224;11.470;2023-01-04T12:34:43;96835.75;;;8.88;59.08
44751;BME280;30477;48.224;11.470;2023-01-04T12:37:10;96836.38;;;8.91;58.64
44751;BME280;30477;48.224;11.470;2023-01-04T12:39:43;96837.00;;;8.95;58.42
44751;BME280;30477;48.224;11.470;2023-01-04T12:42:14;96840.28;;;8.97;58.63
44751;BME280;30477;48.224;11.470;2023-01-04T12:54:54;96813.88;;;9.05;57.20
44751;BME280;30477;48.224;11.470;2023-01-04T12:57:30;96824.94;;;9.07;57.32
44751;BME280;30477;48.224;11.470;2023-01-04T13:02:36;96827.06;;;9.13;57.20
44751;BME280;30477;48.224;11.470;2023-01-04T13:10:41;96819.69;;;9.20;56.89
44751;BME280;30477;48.224;11.470;2023-01-04T13:21:16;96805.50;;;9.25;55.55
44751;BME280;30477;48.224;11.470;2023-01-04T13:23:50;96808.09;;;9.25;55.28
44751;BME280;30477;48.224;11.470;2023-01-04T13:39:49;96804.13;;;9.32;53.87
44751;BME280;30477;48.224;11.470;2023-01-04T13:42:30;96800.59;;;9.33;53.39
44751;BME280;30477;48.224;11.470;2023-01-04T13:47:43;96790.16;;;9.35;52.63
44751;BME280;30477;48.224;11.470;2023-01-04T13:50:57;96777.13;;;9.37;51.96
44751;BME280;30477;48.224;11.470;2023-01-04T13:53:24;96785.69;;;9.37;51.66
44751;BME280;30477;48.224;11.470;2023-01-04T13:56:01;96777.84;;;9.39;51.41
44751;BME280;30477;48.224;11.470;2023-01-04T13:58:28;96781.94;;;9.41;50.91
44751;BME280;30477;48.224;11.470;2023-01-04T14:00:58;96781.94;;;9.41;50.38
44751;BME280;30477;48.224;11.470;2023-01-04T14:03:42;96773.16;;;9.44;50.23
44751;BME280;30477;48.224;11.470;2023-01-04T14:11:52;96781.59;;;9.46;49.59
44751;BME280;30477;48.224;11.470;2023-01-04T14:19:49;96780.53;;;9.48;49.76
44751;BME280;30477;48.224;11.470;2023-01-04T14:22:37;96774.44;;;9.49;49.68
44751;BME280;30477;48.224;11.470;2023-01-04T14:38:44;96761.75;;;9.46;49.97
44751;BME280;30477;48.224;11.470;2023-01-04T14:43:48;96772.09;;;9.46;50.29
44751;BME280;30477;48.224;11.470;2023-01-04T14:46:14;96763.28;;;9.49;50.00
44751;BME280;30477;48.224;11.470;2023-01-04T14:48:39;96753.88;;;9.48;50.16
44751;BME280;30477;48.224;11.470;2023-01-04T14:51:05;96746.03;;;9.49;50.25
44751;BME280;30477;48.224;11.470;2023-01-04T14:53:31;96742.59;;;9.49;50.22
44751;BME280;30477;48.224;11.470;2023-01-04T14:55:57;96733.91;;;9.50;50.37
44751;BME280;30477;48.224;11.470;2023-01-04T14:58:22;96730.38;;;9.51;50.41
44751;BME280;30477;48.224;11.470;2023-01-04T15:00:48;96727.69;;;9.52;50.33
44751;BME280;30477;48.224;11.470;2023-01-04T15:03:13;96708.91;;;9.50;50.55
44751;BME280;30477;48.224;11.470;2023-01-04T15:05:40;96703.50;;;9.53;50.58
44751;BME280;30477;48.224;11.470;2023-01-04T15:08:09;96704.31;;;9.54;50.82
44751;BME280;30477;48.224;11.470;2023-01-04T15:10:34;96695.06;;;9.51;51.23
44751;BME280;30477;48.224;11.470;2023-01-04T15:13:00;96701.25;;;9.49;51.20
44751;BME280;30477;48.224;11.470;2023-01-04T15:15:25;96716.75;;;9.49;51.57
44751;BME280;30477;48.224;11.470;2023-01-04T15:17:51;96709.97;;;9.48;51.87
44751;BME280;30477;48.224;11.470;2023-01-04T15:20:16;96697.75;;;9.50;51.96
44751;BME280;30477;48.224;11.470;2023-01-04T15:22:42;96699.50;;;9.49;52.10